GFA112 OEDF-OBBI
Flight info
| Callsign | GFA112 |
|---|---|
| Flight time | 0h 19m |
| Altitude | 7000 |
| Route | LADNA |
| Aircraft | A320/M-SDE3FGHIRWY/LB1 |
Departure
| Time | 2026-05-06 03:20 |
|---|---|
| Airport | King Fahd International Airport (OEDF) |
Arrival
| Time | 2026-05-06 03:39 |
|---|---|
| Airport | Bahrain International Airport (OBBI) |
| Time | Latitude | Longitude | Altitude | Speed | Heading |
|---|---|---|---|---|---|
| 2026-05-06 02:23 | 26.47088 | 49.79386 | 86 ft | 0 kts | 62° |
| 2026-05-06 03:11 | 26.47086 | 49.79383 | 57 ft | 3 kts | 63° |
| 2026-05-06 03:11 | 26.47075 | 49.79356 | 89 ft | 4 kts | 69° |
| 2026-05-06 03:11 | 26.47067 | 49.79327 | 88 ft | 4 kts | 87° |
| 2026-05-06 03:11 | 26.47072 | 49.79303 | 89 ft | 4 kts | 148° |
| 2026-05-06 03:12 | 26.47080 | 49.79298 | 89 ft | 0 kts | 156° |
| 2026-05-06 03:15 | 26.47074 | 49.79301 | 89 ft | 3 kts | 161° |
| 2026-05-06 03:15 | 26.47040 | 49.79291 | 86 ft | 5 kts | 210° |
| 2026-05-06 03:15 | 26.47015 | 49.79242 | 89 ft | 9 kts | 253° |
| 2026-05-06 03:15 | 26.46993 | 49.79157 | 89 ft | 14 kts | 253° |
| 2026-05-06 03:16 | 26.46949 | 49.79061 | 86 ft | 13 kts | 202° |
| 2026-05-06 03:16 | 26.46863 | 49.79079 | 86 ft | 13 kts | 164° |
| 2026-05-06 03:16 | 26.46761 | 49.79111 | 88 ft | 17 kts | 164° |
| 2026-05-06 03:16 | 26.46634 | 49.79150 | 90 ft | 21 kts | 165° |
| 2026-05-06 03:17 | 26.46483 | 49.79196 | 86 ft | 24 kts | 165° |
| 2026-05-06 03:17 | 26.46310 | 49.79250 | 86 ft | 27 kts | 165° |
| 2026-05-06 03:17 | 26.46118 | 49.79310 | 89 ft | 30 kts | 164° |
| 2026-05-06 03:17 | 26.45910 | 49.79374 | 85 ft | 32 kts | 165° |
| 2026-05-06 03:18 | 26.45756 | 49.79421 | 88 ft | 19 kts | 164° |
| 2026-05-06 03:18 | 26.45623 | 49.79463 | 86 ft | 21 kts | 164° |
| 2026-05-06 03:18 | 26.45501 | 49.79494 | 86 ft | 18 kts | 186° |
| 2026-05-06 03:18 | 26.45442 | 49.79392 | 89 ft | 16 kts | 253° |
| 2026-05-06 03:19 | 26.45420 | 49.79280 | 87 ft | 14 kts | 271° |
| 2026-05-06 03:19 | 26.45470 | 49.79194 | 88 ft | 18 kts | 326° |
| 2026-05-06 03:19 | 26.45740 | 49.79100 | 88 ft | 74 kts | 345° |
| 2026-05-06 03:19 | 26.46446 | 49.78882 | 88 ft | 134 kts | 345° |
| 2026-05-06 03:20 | 26.48707 | 49.78198 | 721 ft | 178 kts | 347° |
| 2026-05-06 03:20 | 26.49916 | 49.77843 | 1317 ft | 186 kts | 345° |
| 2026-05-06 03:20 | 26.51243 | 49.77452 | 1563 ft | 208 kts | 345° |
| 2026-05-06 03:21 | 26.52728 | 49.77013 | 1818 ft | 233 kts | 345° |
| 2026-05-06 03:21 | 26.54416 | 49.76816 | 2140 ft | 258 kts | 8° |
| 2026-05-06 03:21 | 26.56093 | 49.77652 | 2598 ft | 274 kts | 42° |
| 2026-05-06 03:21 | 26.57118 | 49.79435 | 3254 ft | 279 kts | 77° |
| 2026-05-06 03:22 | 26.57137 | 49.81576 | 3943 ft | 278 kts | 103° |
| 2026-05-06 03:22 | 26.56753 | 49.83700 | 4711 ft | 280 kts | 105° |
| 2026-05-06 03:22 | 26.56340 | 49.85813 | 5431 ft | 283 kts | 105° |
| 2026-05-06 03:22 | 26.55911 | 49.87975 | 6166 ft | 287 kts | 105° |
| 2026-05-06 03:23 | 26.55478 | 49.90174 | 6760 ft | 292 kts | 105° |
| 2026-05-06 03:23 | 26.55049 | 49.92394 | 6961 ft | 293 kts | 104° |
| 2026-05-06 03:23 | 26.54623 | 49.94617 | 7018 ft | 293 kts | 104° |
| 2026-05-06 03:23 | 26.54201 | 49.96841 | 7037 ft | 292 kts | 104° |
| 2026-05-06 03:24 | 26.53751 | 49.99049 | 7038 ft | 292 kts | 105° |
| 2026-05-06 03:24 | 26.53219 | 50.01368 | 7046 ft | 325 kts | 106° |
| 2026-05-06 03:24 | 26.52597 | 50.03954 | 7034 ft | 355 kts | 107° |
| 2026-05-06 03:24 | 26.51933 | 50.06674 | 7040 ft | 379 kts | 107° |
| 2026-05-06 03:25 | 26.51233 | 50.09572 | 7028 ft | 390 kts | 106° |
| 2026-05-06 03:25 | 26.50535 | 50.12508 | 7021 ft | 392 kts | 106° |
| 2026-05-06 03:25 | 26.49841 | 50.15461 | 7030 ft | 392 kts | 106° |
| 2026-05-06 03:25 | 26.49152 | 50.18407 | 7027 ft | 392 kts | 106° |
| 2026-05-06 03:26 | 26.48459 | 50.21357 | 7034 ft | 393 kts | 106° |
| 2026-05-06 03:26 | 26.47761 | 50.24309 | 7020 ft | 393 kts | 106° |
| 2026-05-06 03:26 | 26.47061 | 50.27257 | 7031 ft | 393 kts | 106° |
| 2026-05-06 03:26 | 26.46361 | 50.30206 | 7024 ft | 393 kts | 106° |
| 2026-05-06 03:27 | 26.45661 | 50.33153 | 7034 ft | 393 kts | 106° |
| 2026-05-06 03:27 | 26.44962 | 50.36101 | 7035 ft | 392 kts | 107° |
| 2026-05-06 03:27 | 26.44261 | 50.39046 | 7031 ft | 392 kts | 107° |
| 2026-05-06 03:27 | 26.43568 | 50.41952 | 7027 ft | 393 kts | 106° |
| 2026-05-06 03:28 | 26.42863 | 50.44900 | 7038 ft | 393 kts | 106° |
| 2026-05-06 03:28 | 26.42162 | 50.47843 | 7049 ft | 393 kts | 106° |
| 2026-05-06 03:28 | 26.41448 | 50.50833 | 7047 ft | 394 kts | 107° |
| 2026-05-06 03:28 | 26.40751 | 50.53746 | 7051 ft | 394 kts | 106° |
| 2026-05-06 03:29 | 26.40043 | 50.56702 | 7041 ft | 393 kts | 106° |
| 2026-05-06 03:29 | 26.39338 | 50.59648 | 6766 ft | 393 kts | 106° |
| 2026-05-06 03:29 | 26.38648 | 50.62544 | 6454 ft | 378 kts | 106° |
| 2026-05-06 03:29 | 26.37989 | 50.65310 | 6143 ft | 356 kts | 106° |
| 2026-05-06 03:30 | 26.37374 | 50.67880 | 5959 ft | 328 kts | 106° |
| 2026-05-06 03:30 | 26.36797 | 50.70239 | 5751 ft | 304 kts | 109° |
| 2026-05-06 03:30 | 26.35930 | 50.72291 | 5515 ft | 283 kts | 124° |
| 2026-05-06 03:30 | 26.34895 | 50.74071 | 5272 ft | 265 kts | 124° |
| 2026-05-06 03:31 | 26.33922 | 50.75755 | 5032 ft | 251 kts | 124° |
| 2026-05-06 03:31 | 26.32991 | 50.77369 | 4719 ft | 244 kts | 124° |
| 2026-05-06 03:31 | 26.32085 | 50.78937 | 4417 ft | 237 kts | 125° |
| 2026-05-06 03:31 | 26.31204 | 50.80462 | 4106 ft | 231 kts | 124° |
| 2026-05-06 03:32 | 26.30340 | 50.81959 | 3779 ft | 227 kts | 124° |
| 2026-05-06 03:32 | 26.29488 | 50.83433 | 3430 ft | 225 kts | 124° |
| 2026-05-06 03:32 | 26.28656 | 50.84875 | 3085 ft | 223 kts | 124° |
| 2026-05-06 03:32 | 26.27706 | 50.86242 | 2717 ft | 218 kts | 145° |
| 2026-05-06 03:33 | 26.26339 | 50.86846 | 2360 ft | 213 kts | 179° |
| 2026-05-06 03:33 | 26.24934 | 50.86463 | 2069 ft | 212 kts | 211° |
| 2026-05-06 03:33 | 26.23738 | 50.85569 | 2045 ft | 203 kts | 217° |
| 2026-05-06 03:33 | 26.22614 | 50.84636 | 2043 ft | 200 kts | 218° |
| 2026-05-06 03:34 | 26.21503 | 50.83706 | 2039 ft | 200 kts | 218° |
| 2026-05-06 03:34 | 26.20394 | 50.82771 | 2038 ft | 200 kts | 217° |
| 2026-05-06 03:34 | 26.19408 | 50.81692 | 2035 ft | 201 kts | 235° |
| 2026-05-06 03:34 | 26.18810 | 50.80292 | 2039 ft | 200 kts | 255° |
| 2026-05-06 03:35 | 26.18687 | 50.78793 | 2050 ft | 187 kts | 275° |
| 2026-05-06 03:35 | 26.18995 | 50.77454 | 2031 ft | 172 kts | 293° |
| 2026-05-06 03:35 | 26.19581 | 50.76345 | 2028 ft | 161 kts | 302° |
| 2026-05-06 03:35 | 26.19980 | 50.75655 | 2008 ft | 159 kts | 301° |
| 2026-05-06 03:36 | 26.20575 | 50.74626 | 1901 ft | 156 kts | 301° |
| 2026-05-06 03:36 | 26.21138 | 50.73654 | 1760 ft | 145 kts | 300° |
| 2026-05-06 03:36 | 26.21678 | 50.72720 | 1593 ft | 141 kts | 301° |
| 2026-05-06 03:36 | 26.22207 | 50.71804 | 1410 ft | 140 kts | 301° |
| 2026-05-06 03:37 | 26.22740 | 50.70884 | 1240 ft | 142 kts | 303° |
| 2026-05-06 03:37 | 26.23271 | 50.69961 | 1064 ft | 141 kts | 303° |
| 2026-05-06 03:37 | 26.23802 | 50.69043 | 875 ft | 141 kts | 304° |
| 2026-05-06 03:37 | 26.24326 | 50.68135 | 744 ft | 137 kts | 307° |
| 2026-05-06 03:38 | 26.24843 | 50.67244 | 551 ft | 136 kts | 308° |
| 2026-05-06 03:38 | 26.25358 | 50.66357 | 359 ft | 139 kts | 308° |
| 2026-05-06 03:38 | 26.25880 | 50.65461 | 196 ft | 139 kts | 306° |
| 2026-05-06 03:38 | 26.26399 | 50.64556 | 29 ft | 136 kts | 306° |
| 2026-05-06 03:39 | 26.26845 | 50.63782 | 16 ft | 97 kts | 302° |
| 2026-05-06 03:39 | 26.27113 | 50.63311 | 14 ft | 47 kts | 302° |
| 2026-05-06 03:39 | 26.27213 | 50.63136 | 16 ft | 19 kts | 302° |
| 2026-05-06 03:39 | 26.27252 | 50.62997 | 16 ft | 19 kts | 271° |
| 2026-05-06 03:40 | 26.27256 | 50.62880 | 18 ft | 9 kts | 270° |
| 2026-05-06 03:40 | 26.27241 | 50.62831 | 20 ft | 5 kts | 205° |
| 2026-05-06 03:40 | 26.27213 | 50.62832 | 22 ft | 4 kts | 170° |
| 2026-05-06 03:40 | 26.27179 | 50.62860 | 20 ft | 8 kts | 123° |
| 2026-05-06 03:41 | 26.27154 | 50.62899 | 21 ft | 5 kts | 135° |
| 2026-05-06 03:41 | 26.27134 | 50.62910 | 22 ft | 3 kts | 165° |
| 2026-05-06 03:41 | 26.27112 | 50.62909 | 22 ft | 3 kts | 192° |
| 2026-05-06 03:41 | 26.27075 | 50.62887 | 22 ft | 10 kts | 209° |
| 2026-05-06 03:42 | 26.27074 | 50.62814 | 21 ft | 2 kts | 304° |
| 2026-05-06 03:42 | 26.27082 | 50.62802 | 22 ft | 2 kts | 304° |
| 2026-05-06 03:42 | 26.27090 | 50.62790 | 21 ft | 3 kts | 304° |
| 2026-05-06 03:42 | 26.27091 | 50.62765 | 21 ft | 4 kts | 229° |
| 2026-05-06 03:43 | 26.27067 | 50.62747 | 21 ft | 5 kts | 213° |
| 2026-05-06 03:43 | 26.27033 | 50.62722 | 20 ft | 6 kts | 213° |
| 2026-05-06 03:43 | 26.27018 | 50.62712 | 22 ft | 0 kts | 213° |